Time;durP1;ratioP1;P1;durP2;ratioP2;P2;SDS_P1;SDS_P2;PMS_P1;PMS_P2;Temp;Humidity;BMP_temperature;BMP_pressure;BME280_temperature;BME280_humidity;BME280_pressure;Samples;Min_cycle;Max_cycle;Signal;HPM_P1;HPM_P2
2022/06/28 00:01:01;;;;;;;1.87;1.73;;;;;;;;;;4994221;28;20227;-77
2022/06/28 00:03:27;;;;;;;1.80;1.70;;;;;;;;;;4995319;28;20191;-78
2022/06/28 00:05:52;;;;;;;2.50;1.70;;;;;;;;;;4993554;28;20185;-78
2022/06/28 00:08:17;;;;;;;1.73;1.63;;;;;;;;;;5010225;28;20181;-78
2022/06/28 00:10:42;;;;;;;1.90;1.80;;;;;;;;;;5012256;28;20973;-77
2022/06/28 00:13:08;;;;;;;1.87;1.63;;;;;;;;;;4995438;28;20197;-77
2022/06/28 00:18:17;;;;;;;1.63;1.53;;;;;;;;;;5009529;28;20187;-78
2022/06/28 00:20:44;;;;;;;2.60;2.03;;;;;;;;;;4995677;28;20252;-78
2022/06/28 00:23:09;;;;;;;1.83;1.70;;;;;;;;;;4994103;28;20188;-77
2022/06/28 00:25:35;;;;;;;1.77;1.67;;;;;;;;;;4992439;28;20214;-77
2022/06/28 00:28:00;;;;;;;1.80;1.70;;;;;;;;;;5009643;28;20437;-78
2022/06/28 00:30:25;;;;;;;1.80;1.70;;;;;;;;;;5008622;28;20341;-78
2022/06/28 00:32:51;;;;;;;1.90;1.80;;;;;;;;;;4996881;28;20180;-78
2022/06/28 00:35:16;;;;;;;3.97;1.80;;;;;;;;;;4995288;28;20196;-78
2022/06/28 00:37:44;;;;;;;1.70;1.60;;;;;;;;;;5011064;28;20210;-78
2022/06/28 00:40:09;;;;;;;1.63;1.53;;;;;;;;;;4992735;28;20241;-77
2022/06/28 00:42:35;;;;;;;2.00;1.73;;;;;;;;;;4993833;28;20216;-78
2022/06/28 00:45:01;;;;;;;1.63;1.53;;;;;;;;;;4994576;28;20191;-77
2022/06/28 00:47:26;;;;;;;1.70;1.60;;;;;;;;;;4996389;28;20194;-78
2022/06/28 00:49:52;;;;;;;2.17;1.73;;;;;;;;;;4984439;28;20237;-78
2022/06/28 00:52:17;;;;;;;2.33;2.13;;;;;;;;;;4971370;28;20214;-78
2022/06/28 00:54:42;;;;;;;2.17;1.97;;;;;;;;;;4972401;28;20258;-77
2022/06/28 00:57:07;;;;;;;1.80;1.70;;;;;;;;;;4971364;28;20255;-78
2022/06/28 00:59:33;;;;;;;2.20;2.00;;;;;;;;;;4970651;28;20180;-77
2022/06/28 01:01:59;;;;;;;1.80;1.70;;;;;;;;;;4971269;28;20203;-78
2022/06/28 01:04:24;;;;;;;2.03;1.93;;;;;;;;;;4971196;28;20181;-77
2022/06/28 01:06:49;;;;;;;8.63;2.30;;;;;;;;;;4970720;28;20190;-77
2022/06/28 01:09:15;;;;;;;3.30;2.07;;;;;;;;;;4971384;28;20282;-77
2022/06/28 01:11:40;;;;;;;2.83;1.93;;;;;;;;;;4972536;28;20180;-77
2022/06/28 01:14:07;;;;;;;2.57;2.10;;;;;;;;;;4970281;28;20181;-77
2022/06/28 01:16:32;;;;;;;2.53;1.80;;;;;;;;;;4970834;28;20180;-77
2022/06/28 01:19:00;;;;;;;2.67;2.20;;;;;;;;;;4970291;28;20261;-77
2022/06/28 01:21:27;;;;;;;3.17;2.47;;;;;;;;;;4968108;28;20226;-77
2022/06/28 01:23:53;;;;;;;2.43;2.23;;;;;;;;;;4975731;28;20185;-78
2022/06/28 01:26:21;;;;;;;3.57;2.10;;;;;;;;;;4971357;28;20187;-78
2022/06/28 01:28:50;;;;;;;2.73;2.53;;;;;;;;;;4968100;28;20179;-78
2022/06/28 01:31:19;;;;;;;6.60;2.10;;;;;;;;;;4969344;28;20190;-77
2022/06/28 01:33:44;;;;;;;2.30;2.10;;;;;;;;;;4971951;28;20186;-77
2022/06/28 01:36:10;;;;;;;2.30;2.20;;;;;;;;;;4969736;28;20197;-77
2022/06/28 01:38:35;;;;;;;2.10;2.00;;;;;;;;;;4971732;28;20178;-77
2022/06/28 01:41:04;;;;;;;4.63;2.80;;;;;;;;;;4970065;28;20198;-77
2022/06/28 01:43:30;;;;;;;2.40;2.20;;;;;;;;;;4974080;28;20211;-77
2022/06/28 01:45:57;;;;;;;2.90;2.30;;;;;;;;;;4970517;28;20189;-77
2022/06/28 01:48:22;;;;;;;2.37;2.27;;;;;;;;;;4986031;28;20185;-77
2022/06/28 01:50:48;;;;;;;2.60;2.40;;;;;;;;;;5002571;28;20227;-77
2022/06/28 01:53:14;;;;;;;3.00;2.27;;;;;;;;;;5017333;28;20180;-77
2022/06/28 01:55:40;;;;;;;4.27;2.27;;;;;;;;;;5012277;28;20196;-77
2022/06/28 01:58:06;;;;;;;2.10;1.83;;;;;;;;;;4989845;28;20178;-77
2022/06/28 02:00:31;;;;;;;2.00;1.90;;;;;;;;;;5002487;28;20177;-77
2022/06/28 02:02:57;;;;;;;3.90;2.00;;;;;;;;;;4994772;28;20286;-77
2022/06/28 02:05:22;;;;;;;1.80;1.67;;;;;;;;;;4989855;28;20188;-77
2022/06/28 02:07:49;;;;;;;2.50;1.80;;;;;;;;;;4995387;28;20244;-77
2022/06/28 02:10:15;;;;;;;2.30;2.10;;;;;;;;;;4994437;28;20188;-77
2022/06/28 02:12:40;;;;;;;3.00;2.20;;;;;;;;;;5001085;28;20268;-77
2022/06/28 02:15:05;;;;;;;2.67;2.47;;;;;;;;;;4992674;28;20186;-77
2022/06/28 02:17:30;;;;;;;2.43;2.23;;;;;;;;;;4992912;28;20174;-77
2022/06/28 02:19:56;;;;;;;2.40;1.93;;;;;;;;;;4990911;28;20189;-78
2022/06/28 02:22:21;;;;;;;2.33;2.07;;;;;;;;;;4993190;28;20216;-76
2022/06/28 02:24:46;;;;;;;2.47;2.27;;;;;;;;;;4998437;28;20174;-77
2022/06/28 02:27:11;;;;;;;2.73;2.40;;;;;;;;;;4994053;28;20178;-77
2022/06/28 02:29:37;;;;;;;2.17;2.07;;;;;;;;;;4994467;28;20265;-77
2022/06/28 02:32:02;;;;;;;2.60;2.40;;;;;;;;;;4993523;28;20218;-77
2022/06/28 02:42:39;;;;;;;4.03;2.47;;;;;;;;;;5009705;28;20200;-77
2022/06/28 02:45:04;;;;;;;2.40;2.20;;;;;;;;;;4992375;28;20173;-76
2022/06/28 02:47:29;;;;;;;2.00;1.80;;;;;;;;;;4993474;28;20179;-77
2022/06/28 02:49:55;;;;;;;2.67;1.93;;;;;;;;;;4985952;28;20222;-77
2022/06/28 02:52:20;;;;;;;1.90;1.80;;;;;;;;;;4990292;28;20195;-77
2022/06/28 02:54:45;;;;;;;3.27;2.17;;;;;;;;;;4989715;28;20253;-77
2022/06/28 02:57:10;;;;;;;3.53;2.43;;;;;;;;;;4989491;28;20204;-76
2022/06/28 02:59:36;;;;;;;5.23;2.20;;;;;;;;;;4989457;28;20218;-76
2022/06/28 03:02:01;;;;;;;2.60;2.00;;;;;;;;;;4989501;28;20233;-77
2022/06/28 03:04:26;;;;;;;3.50;2.37;;;;;;;;;;4988369;28;20268;-77
2022/06/28 03:06:51;;;;;;;2.10;2.00;;;;;;;;;;4988618;28;20177;-76
2022/06/28 03:09:16;;;;;;;2.30;2.20;;;;;;;;;;4990343;28;20251;-77
2022/06/28 03:11:42;;;;;;;3.17;2.03;;;;;;;;;;4986919;28;20172;-77
2022/06/28 03:14:07;;;;;;;2.40;1.70;;;;;;;;;;4988988;28;20233;-77
2022/06/28 03:16:32;;;;;;;2.00;1.90;;;;;;;;;;4992520;28;20179;-76
2022/06/28 03:18:57;;;;;;;2.13;2.00;;;;;;;;;;4985781;28;20201;-76
2022/06/28 03:21:23;;;;;;;2.43;2.10;;;;;;;;;;4992848;28;20488;-77
2022/06/28 03:23:48;;;;;;;2.00;1.90;;;;;;;;;;4994689;28;20243;-77
2022/06/28 03:26:13;;;;;;;2.40;2.20;;;;;;;;;;4990720;28;20180;-77
2022/06/28 03:28:38;;;;;;;3.13;1.80;;;;;;;;;;4992092;28;20184;-76
2022/06/28 03:31:04;;;;;;;2.27;1.97;;;;;;;;;;4994041;28;20260;-77
2022/06/28 03:33:29;;;;;;;2.23;2.13;;;;;;;;;;4991527;28;20179;-76
2022/06/28 03:35:54;;;;;;;3.07;2.10;;;;;;;;;;4993496;28;20206;-76
2022/06/28 03:38:19;;;;;;;3.57;2.17;;;;;;;;;;4992166;28;20283;-77
2022/06/28 03:40:45;;;;;;;4.37;2.00;;;;;;;;;;4993047;28;20253;-76
2022/06/28 03:43:10;;;;;;;2.23;1.90;;;;;;;;;;4989863;28;20666;-77
2022/06/28 03:45:35;;;;;;;3.57;1.90;;;;;;;;;;4990831;28;20186;-76
2022/06/28 03:48:00;;;;;;;2.47;2.03;;;;;;;;;;4992749;28;20208;-76
2022/06/28 03:50:25;;;;;;;2.23;2.03;;;;;;;;;;4988580;28;20232;-76
2022/06/28 03:52:51;;;;;;;2.57;1.70;;;;;;;;;;4993303;28;20243;-77
2022/06/28 03:55:16;;;;;;;3.07;2.00;;;;;;;;;;4992131;28;20276;-76
2022/06/28 03:57:41;;;;;;;4.10;2.23;;;;;;;;;;4988910;28;20183;-76
2022/06/28 04:00:07;;;;;;;5.07;2.90;;;;;;;;;;4986688;28;20184;-76
2022/06/28 04:02:33;;;;;;;2.47;2.27;;;;;;;;;;4990254;28;20204;-77
2022/06/28 04:04:58;;;;;;;2.70;2.50;;;;;;;;;;4989912;28;20186;-76
2022/06/28 04:07:23;;;;;;;2.47;2.27;;;;;;;;;;4990586;28;20190;-76
2022/06/28 04:09:48;;;;;;;3.23;2.10;;;;;;;;;;4991690;28;20181;-77
2022/06/28 04:12:14;;;;;;;4.27;2.20;;;;;;;;;;4988582;28;20188;-76
2022/06/28 04:14:39;;;;;;;5.50;2.57;;;;;;;;;;4992015;28;20181;-76
2022/06/28 04:17:04;;;;;;;2.70;2.50;;;;;;;;;;4987092;28;20181;-76
2022/06/28 04:19:29;;;;;;;2.90;2.70;;;;;;;;;;4992162;28;20236;-76
2022/06/28 04:21:54;;;;;;;4.30;3.53;;;;;;;;;;4988092;28;20252;-76
2022/06/28 04:24:20;;;;;;;5.67;3.47;;;;;;;;;;4991468;28;20185;-77
2022/06/28 04:26:45;;;;;;;4.33;3.77;;;;;;;;;;4988683;28;20203;-76
2022/06/28 04:29:10;;;;;;;4.43;4.03;;;;;;;;;;4993455;28;20185;-76
2022/06/28 04:31:35;;;;;;;6.13;4.73;;;;;;;;;;4988560;28;20267;-77
2022/06/28 04:34:00;;;;;;;5.70;5.20;;;;;;;;;;4990704;28;20183;-77
2022/06/28 04:36:26;;;;;;;7.13;5.63;;;;;;;;;;4988960;28;20217;-77
2022/06/28 04:38:52;;;;;;;5.93;5.20;;;;;;;;;;4991688;28;20258;-76
2022/06/28 04:41:17;;;;;;;6.43;5.83;;;;;;;;;;4987400;28;20196;-77
2022/06/28 04:43:43;;;;;;;7.83;6.37;;;;;;;;;;4992136;28;20191;-77
2022/06/28 04:46:08;;;;;;;7.43;6.33;;;;;;;;;;4991726;28;20187;-77
2022/06/28 04:48:33;;;;;;;8.43;6.07;;;;;;;;;;4992915;28;20173;-77
2022/06/28 04:51:10;;;;;;;6.47;5.37;;;;;;;;;;4990438;28;20229;-77
2022/06/28 04:53:36;;;;;;;5.43;4.93;;;;;;;;;;4988656;28;20182;-77
2022/06/28 04:56:01;;;;;;;5.90;5.23;;;;;;;;;;4988774;28;20319;-77
2022/06/28 04:58:27;;;;;;;6.20;5.43;;;;;;;;;;4990830;28;20181;-77
2022/06/28 05:00:52;;;;;;;6.73;6.10;;;;;;;;;;4991551;28;20176;-77
2022/06/28 05:03:17;;;;;;;12.97;11.97;;;;;;;;;;4988736;28;20214;-77
2022/06/28 05:05:42;;;;;;;5.80;5.20;;;;;;;;;;4990335;28;20291;-77
2022/06/28 05:08:07;;;;;;;4.97;4.57;;;;;;;;;;4991338;28;20179;-77
2022/06/28 05:10:33;;;;;;;5.30;4.80;;;;;;;;;;4993691;28;20171;-77
2022/06/28 05:12:58;;;;;;;8.10;5.77;;;;;;;;;;4984465;28;20187;-78
2022/06/28 05:15:23;;;;;;;4.87;4.37;;;;;;;;;;4991395;28;20184;-77
2022/06/28 05:17:48;;;;;;;5.40;4.90;;;;;;;;;;4988408;28;20212;-78
2022/06/28 05:20:13;;;;;;;4.53;4.10;;;;;;;;;;4988264;28;20251;-78
2022/06/28 05:22:39;;;;;;;3.97;3.67;;;;;;;;;;4990584;28;20207;-78
2022/06/28 05:25:04;;;;;;;3.50;3.20;;;;;;;;;;4989461;28;20274;-77
2022/06/28 05:27:29;;;;;;;4.37;3.50;;;;;;;;;;4983861;28;20415;-87
2022/06/28 05:29:55;;;;;;;5.20;4.00;;;;;;;;;;4975580;28;20257;-87
2022/06/28 05:32:20;;;;;;;4.80;4.23;;;;;;;;;;4991429;28;20216;-88
2022/06/28 05:34:46;;;;;;;4.57;4.13;;;;;;;;;;4991120;28;20217;-88
2022/06/28 05:37:11;;;;;;;4.70;3.93;;;;;;;;;;4986889;28;20199;-88
2022/06/28 05:39:36;;;;;;;5.27;3.07;;;;;;;;;;4991354;28;20182;-87
2022/06/28 05:42:02;;;;;;;3.93;3.53;;;;;;;;;;4990818;28;20200;-88
2022/06/28 05:44:27;;;;;;;5.47;4.90;;;;;;;;;;4989914;28;20214;-88
2022/06/28 05:46:52;;;;;;;3.57;3.23;;;;;;;;;;4986360;28;20175;-88
2022/06/28 05:49:18;;;;;;;3.73;3.43;;;;;;;;;;4989971;28;20514;-88
2022/06/28 05:51:43;;;;;;;4.13;3.17;;;;;;;;;;5012187;28;20180;-88
2022/06/28 05:54:09;;;;;;;6.90;5.20;;;;;;;;;;4998442;28;20182;-89
2022/06/28 05:56:35;;;;;;;6.10;3.80;;;;;;;;;;4993757;28;20185;-89
2022/06/28 05:59:00;;;;;;;3.03;2.73;;;;;;;;;;4993905;28;20285;-89
2022/06/28 06:01:25;;;;;;;2.87;2.60;;;;;;;;;;4993960;28;20272;-89
2022/06/28 06:03:51;;;;;;;3.00;2.70;;;;;;;;;;4995827;28;20235;-89
2022/06/28 06:06:17;;;;;;;4.63;3.43;;;;;;;;;;4993996;28;20459;-88
2022/06/28 06:08:42;;;;;;;2.50;2.30;;;;;;;;;;4990512;28;20176;-89
2022/06/28 06:11:07;;;;;;;2.47;2.27;;;;;;;;;;4993014;28;20191;-88
2022/06/28 06:13:36;;;;;;;2.57;2.27;;;;;;;;;;4997267;28;20281;-90
2022/06/28 06:16:02;;;;;;;2.70;2.37;;;;;;;;;;4991820;28;20181;-89
2022/06/28 06:18:27;;;;;;;2.57;2.37;;;;;;;;;;4995658;28;20244;-91
2022/06/28 06:20:53;;;;;;;2.97;2.67;;;;;;;;;;4994142;28;20178;-90
2022/06/28 06:23:18;;;;;;;3.50;3.20;;;;;;;;;;4992843;28;20214;-90
2022/06/28 06:25:43;;;;;;;3.20;3.00;;;;;;;;;;4992979;28;20211;-89
2022/06/28 06:28:09;;;;;;;3.00;2.80;;;;;;;;;;4990089;28;20194;-90
2022/06/28 06:30:34;;;;;;;2.70;2.50;;;;;;;;;;4998286;28;20182;-90
2022/06/28 06:32:59;;;;;;;2.83;2.63;;;;;;;;;;4993434;28;20219;-91
2022/06/28 06:35:25;;;;;;;3.50;2.33;;;;;;;;;;4999242;28;20209;-91
2022/06/28 06:37:50;;;;;;;2.80;2.50;;;;;;;;;;4990105;28;20197;-90
2022/06/28 06:40:16;;;;;;;2.50;2.30;;;;;;;;;;4990688;28;20184;-91
2022/06/28 06:42:41;;;;;;;2.93;2.73;;;;;;;;;;4999473;28;20191;-90
2022/06/28 06:45:07;;;;;;;4.30;3.20;;;;;;;;;;4991213;28;20175;-92
2022/06/28 06:47:32;;;;;;;2.87;2.67;;;;;;;;;;4995311;28;20202;-90
2022/06/28 06:49:58;;;;;;;2.90;2.60;;;;;;;;;;4990874;28;20235;-91
2022/06/28 06:52:24;;;;;;;3.80;2.80;;;;;;;;;;4991045;28;20319;-91
2022/06/28 06:54:49;;;;;;;2.87;2.67;;;;;;;;;;4986982;28;20313;-92
2022/06/28 06:57:15;;;;;;;2.90;2.70;;;;;;;;;;4989847;28;20247;-94
2022/06/28 06:59:40;;;;;;;3.13;2.77;;;;;;;;;;4989798;28;20176;-91
2022/06/28 07:02:06;;;;;;;3.63;3.27;;;;;;;;;;4990271;28;20193;-90
2022/06/28 07:04:31;;;;;;;5.30;2.60;;;;;;;;;;4992201;28;20189;-93
2022/06/28 07:06:57;;;;;;;3.60;3.30;;;;;;;;;;4994028;28;20225;-91
2022/06/28 07:09:25;;;;;;;3.83;3.10;;;;;;;;;;4989033;28;20243;-91
2022/06/28 07:11:50;;;;;;;6.50;4.20;;;;;;;;;;4994344;28;20184;-94
2022/06/28 07:14:15;;;;;;;3.47;3.17;;;;;;;;;;4993204;28;20194;-91
2022/06/28 07:16:41;;;;;;;3.97;3.63;;;;;;;;;;4991728;28;20246;-91
2022/06/28 07:19:06;;;;;;;4.13;3.83;;;;;;;;;;4993619;28;20210;-92
2022/06/28 07:21:32;;;;;;;6.90;4.23;;;;;;;;;;4993359;28;20226;-93
2022/06/28 07:24:01;;;;;;;3.80;3.50;;;;;;;;;;4992283;28;20194;-90
2022/06/28 07:26:26;;;;;;;4.17;3.87;;;;;;;;;;4992386;28;20208;-92
2022/06/28 07:28:52;;;;;;;5.43;3.57;;;;;;;;;;4996619;28;20180;-92
2022/06/28 07:31:17;;;;;;;3.70;3.40;;;;;;;;;;4995560;28;20169;-93
2022/06/28 07:33:43;;;;;;;3.13;2.93;;;;;;;;;;4996160;28;20192;-92
2022/06/28 07:36:08;;;;;;;3.97;3.67;;;;;;;;;;4995068;28;20194;-91
2022/06/28 07:38:35;;;;;;;3.93;3.63;;;;;;;;;;4992550;28;20178;-91
2022/06/28 07:41:00;;;;;;;3.63;3.33;;;;;;;;;;4999536;28;20255;-93
2022/06/28 07:43:25;;;;;;;4.20;3.90;;;;;;;;;;4997079;28;20295;-93
2022/06/28 07:45:51;;;;;;;5.00;4.60;;;;;;;;;;4995069;28;20188;-93
2022/06/28 07:48:18;;;;;;;4.10;3.80;;;;;;;;;;4998345;28;20184;-92
2022/06/28 07:53:32;;;;;;;4.83;4.43;;;;;;;;;;4995002;28;20197;-92
2022/06/28 07:55:58;;;;;;;3.87;3.57;;;;;;;;;;4997778;28;20329;-93
2022/06/28 07:58:27;;;;;;;3.90;3.50;;;;;;;;;;4998278;28;20182;-91
2022/06/28 08:00:53;;;;;;;5.90;3.70;;;;;;;;;;4995855;28;20176;-93
2022/06/28 08:03:18;;;;;;;4.23;3.93;;;;;;;;;;5004326;28;20211;-93
2022/06/28 08:05:43;;;;;;;3.47;3.17;;;;;;;;;;4996281;28;20182;-94
2022/06/28 08:08:09;;;;;;;3.70;3.40;;;;;;;;;;4999574;28;20189;-95
2022/06/28 08:10:35;;;;;;;3.87;3.40;;;;;;;;;;4993395;28;20176;-93
2022/06/28 08:13:00;;;;;;;3.13;2.87;;;;;;;;;;5000710;28;20209;-94
2022/06/28 08:15:25;;;;;;;3.43;3.13;;;;;;;;;;4992340;28;20216;-93
2022/06/28 08:17:51;;;;;;;8.80;8.03;;;;;;;;;;4994828;28;20179;-94
2022/06/28 08:20:16;;;;;;;3.13;2.93;;;;;;;;;;4994815;28;20191;-94
2022/06/28 08:22:42;;;;;;;3.50;3.20;;;;;;;;;;4995399;28;20255;-94
2022/06/28 08:25:07;;;;;;;4.00;3.07;;;;;;;;;;4994982;28;20180;-92
2022/06/28 08:27:33;;;;;;;4.10;3.20;;;;;;;;;;4995444;28;20236;-92
2022/06/28 08:29:58;;;;;;;3.57;3.07;;;;;;;;;;4996554;28;20168;-94
2022/06/28 08:32:26;;;;;;;3.10;2.90;;;;;;;;;;4993777;28;20222;-94
2022/06/28 08:34:51;;;;;;;3.30;2.87;;;;;;;;;;4993130;28;20182;-83
2022/06/28 08:37:17;;;;;;;3.13;2.73;;;;;;;;;;4995041;28;20197;-95
2022/06/28 08:39:46;;;;;;;3.10;2.80;;;;;;;;;;5006755;28;20166;-92
2022/06/28 08:42:11;;;;;;;4.60;2.83;;;;;;;;;;4999517;28;20237;-91
2022/06/28 08:44:37;;;;;;;4.07;2.70;;;;;;;;;;4991986;28;20202;-93
2022/06/28 08:47:03;;;;;;;4.23;3.17;;;;;;;;;;4993470;28;20185;-92
2022/06/28 08:49:48;;;;;;;2.57;2.30;;;;;;;;;;4995257;28;20232;-92
2022/06/28 08:52:14;;;;;;;2.80;2.40;;;;;;;;;;4995048;28;20195;-93
2022/06/28 08:54:43;;;;;;;3.70;2.70;;;;;;;;;;4994664;28;20194;-91
2022/06/28 08:57:11;;;;;;;4.17;2.90;;;;;;;;;;4995292;28;20174;-93
2022/06/28 08:59:36;;;;;;;3.30;2.67;;;;;;;;;;4996278;28;20205;-92
2022/06/28 09:02:08;;;;;;;2.50;2.30;;;;;;;;;;4991620;28;20207;-91
2022/06/28 09:05:05;;;;;;;3.70;2.53;;;;;;;;;;4986849;28;20169;-93
2022/06/28 09:07:31;;;;;;;2.37;2.20;;;;;;;;;;4954897;28;20186;-93
2022/06/28 09:09:56;;;;;;;3.03;2.70;;;;;;;;;;4996330;28;20179;-93
2022/06/28 09:12:22;;;;;;;2.87;2.57;;;;;;;;;;4993697;28;20185;-92
2022/06/28 09:14:47;;;;;;;3.07;2.67;;;;;;;;;;4994350;28;20189;-92
2022/06/28 09:17:31;;;;;;;2.83;2.60;;;;;;;;;;4992668;28;20187;-94
2022/06/28 09:20:01;;;;;;;2.30;2.10;;;;;;;;;;4992654;28;20299;-92
2022/06/28 09:22:28;;;;;;;4.57;2.90;;;;;;;;;;4991944;28;20207;-91
2022/06/28 09:24:54;;;;;;;5.10;3.40;;;;;;;;;;5008387;28;20181;-89
2022/06/28 09:27:26;;;;;;;2.77;2.30;;;;;;;;;;4990318;28;20194;-91
2022/06/28 09:29:52;;;;;;;3.50;2.27;;;;;;;;;;4991930;28;20485;-92
2022/06/28 09:32:24;;;;;;;2.90;2.53;;;;;;;;;;4990166;28;20300;-90
2022/06/28 09:34:54;;;;;;;4.07;2.63;;;;;;;;;;4992739;28;20189;-91
2022/06/28 09:37:30;;;;;;;2.43;2.23;;;;;;;;;;4990887;28;20208;-93
2022/06/28 09:39:55;;;;;;;2.23;2.13;;;;;;;;;;4992626;28;20191;-90
2022/06/28 09:42:21;;;;;;;2.43;2.13;;;;;;;;;;4991896;28;20202;-92
2022/06/28 09:44:52;;;;;;;2.63;2.43;;;;;;;;;;4991673;28;20173;-90
2022/06/28 09:47:17;;;;;;;2.40;2.20;;;;;;;;;;4987880;28;20194;-90
2022/06/28 09:49:46;;;;;;;3.43;2.50;;;;;;;;;;4991660;28;20243;-91
2022/06/28 09:52:12;;;;;;;2.90;2.30;;;;;;;;;;4991430;28;20181;-90
2022/06/28 09:54:44;;;;;;;2.63;2.43;;;;;;;;;;4988384;28;20468;-91
2022/06/28 09:57:11;;;;;;;3.60;2.80;;;;;;;;;;4974887;28;20195;-90
2022/06/28 09:59:37;;;;;;;3.27;2.20;;;;;;;;;;4991052;28;20182;-88
2022/06/28 10:02:02;;;;;;;3.80;2.40;;;;;;;;;;4987412;28;20210;-90
2022/06/28 10:04:28;;;;;;;5.97;2.93;;;;;;;;;;4991458;28;20212;-89
2022/06/28 10:06:53;;;;;;;3.63;2.83;;;;;;;;;;4991214;28;20246;-90
2022/06/28 10:09:20;;;;;;;2.57;2.37;;;;;;;;;;4990667;28;20186;-89
2022/06/28 10:17:36;;;;;;;2.07;1.97;;;;;;;;;;4992038;28;20233;-91
2022/06/28 10:20:06;;;;;;;2.60;2.40;;;;;;;;;;5002001;28;20199;-83
2022/06/28 10:22:31;;;;;;;5.30;2.40;;;;;;;;;;4985999;28;20246;-83
2022/06/28 10:24:57;;;;;;;3.50;2.40;;;;;;;;;;4989091;28;20185;-83
2022/06/28 10:27:23;;;;;;;2.53;2.33;;;;;;;;;;4990219;28;20195;-83
2022/06/28 10:29:57;;;;;;;3.30;2.17;;;;;;;;;;4990526;28;20208;-81
2022/06/28 10:32:42;;;;;;;2.43;2.23;;;;;;;;;;4985691;28;20210;-83
2022/06/28 10:35:07;;;;;;;2.47;2.27;;;;;;;;;;4990401;28;20210;-83
2022/06/28 10:37:32;;;;;;;2.77;2.20;;;;;;;;;;4986641;28;20239;-84
2022/06/28 10:40:16;;;;;;;4.20;2.10;;;;;;;;;;4989196;28;20274;-83
2022/06/28 10:42:49;;;;;;;2.43;2.23;;;;;;;;;;4987254;28;20233;-83
2022/06/28 10:45:14;;;;;;;3.90;2.40;;;;;;;;;;4989980;28;20186;-83
2022/06/28 10:47:59;;;;;;;2.50;2.30;;;;;;;;;;4989810;28;20246;-83
2022/06/28 10:50:25;;;;;;;2.90;2.70;;;;;;;;;;4985851;28;20237;-83
2022/06/28 10:53:00;;;;;;;1.90;1.80;;;;;;;;;;4990303;28;20188;-83
2022/06/28 10:55:25;;;;;;;3.43;3.03;;;;;;;;;;4985233;28;20192;-83
2022/06/28 10:58:05;;;;;;;2.27;2.07;;;;;;;;;;4990260;28;20278;-83
2022/06/28 11:00:34;;;;;;;3.03;2.20;;;;;;;;;;4991125;28;20183;-83
2022/06/28 11:03:01;;;;;;;2.00;1.80;;;;;;;;;;4988915;28;20202;-83
2022/06/28 11:05:43;;;;;;;3.43;2.17;;;;;;;;;;4990243;28;20190;-83
2022/06/28 11:08:10;;;;;;;2.67;2.33;;;;;;;;;;4990126;28;20203;-83
2022/06/28 11:10:35;;;;;;;2.63;2.20;;;;;;;;;;4986045;28;20219;-84
2022/06/28 11:13:20;;;;;;;2.40;2.20;;;;;;;;;;4992638;28;20216;-83
2022/06/28 11:15:45;;;;;;;2.93;2.57;;;;;;;;;;4990912;28;20189;-83
2022/06/28 11:18:13;;;;;;;2.90;2.27;;;;;;;;;;4991269;28;20185;-85
2022/06/28 11:20:39;;;;;;;1.90;1.80;;;;;;;;;;4986097;28;20195;-83
2022/06/28 11:23:05;;;;;;;2.33;2.10;;;;;;;;;;4988502;28;20199;-83
2022/06/28 11:28:16;;;;;;;2.43;2.23;;;;;;;;;;4989651;28;20226;-83
2022/06/28 11:30:42;;;;;;;2.17;1.90;;;;;;;;;;4990151;28;20203;-83
2022/06/28 11:33:08;;;;;;;1.80;1.70;;;;;;;;;;4989921;28;20233;-83
2022/06/28 11:35:34;;;;;;;2.20;2.00;;;;;;;;;;4990706;28;20185;-83
2022/06/28 11:38:03;;;;;;;3.63;1.90;;;;;;;;;;4993539;28;20263;-83
2022/06/28 11:40:41;;;;;;;2.83;2.30;;;;;;;;;;4990803;28;20218;-83
2022/06/28 11:43:11;;;;;;;1.83;1.73;;;;;;;;;;4993629;28;20212;-83
2022/06/28 11:45:37;;;;;;;3.07;2.17;;;;;;;;;;4991665;28;20174;-82
2022/06/28 11:48:03;;;;;;;2.50;1.93;;;;;;;;;;4994338;28;20177;-84
2022/06/28 11:50:37;;;;;;;2.17;1.90;;;;;;;;;;4992492;28;20218;-82
2022/06/28 11:53:03;;;;;;;2.97;1.90;;;;;;;;;;4993400;28;20178;-83
2022/06/28 11:55:43;;;;;;;2.00;1.90;;;;;;;;;;4990191;28;20190;-82
2022/06/28 11:58:19;;;;;;;2.13;1.80;;;;;;;;;;5006469;28;20201;-83
2022/06/28 12:01:03;;;;;;;2.00;1.90;;;;;;;;;;4992808;28;20261;-85
2022/06/28 12:03:28;;;;;;;2.27;2.00;;;;;;;;;;4989340;28;20213;-83
2022/06/28 12:05:57;;;;;;;3.10;2.10;;;;;;;;;;4990251;28;20197;-83
2022/06/28 12:08:40;;;;;;;2.13;1.90;;;;;;;;;;4991275;28;20203;-84
2022/06/28 12:11:08;;;;;;;2.13;1.90;;;;;;;;;;4990421;28;20240;-83
2022/06/28 12:13:33;;;;;;;1.90;1.80;;;;;;;;;;4988441;28;20202;-83
2022/06/28 12:15:58;;;;;;;3.80;2.37;;;;;;;;;;4992221;28;20208;-85
2022/06/28 12:18:24;;;;;;;1.90;1.80;;;;;;;;;;4992594;28;20199;-83
2022/06/28 12:20:54;;;;;;;5.05;1.80;;;;;;;;;;4993341;28;20184;-84
2022/06/28 12:23:19;;;;;;;4.45;3.40;;;;;;;;;;4988742;28;20215;-84
2022/06/28 12:25:44;;;;;;;4.97;1.70;;;;;;;;;;4988540;28;20277;-84
2022/06/28 12:28:09;;;;;;;1.60;1.50;;;;;;;;;;4992521;28;20181;-83
2022/06/28 12:30:35;;;;;;;2.43;1.90;;;;;;;;;;4987878;28;20172;-83
2022/06/28 12:33:00;;;;;;;2.42;1.60;;;;;;;;;;4992913;28;20167;-84
2022/06/28 12:35:25;;;;;;;2.23;2.03;;;;;;;;;;4992290;28;20188;-84
2022/06/28 12:37:52;;;;;;;3.25;2.00;;;;;;;;;;4992747;28;20274;-84
2022/06/28 12:40:18;;;;;;;1.70;1.60;;;;;;;;;;4992997;28;20186;-83
2022/06/28 12:42:43;;;;;;;1.92;1.48;;;;;;;;;;4990435;28;20203;-83
2022/06/28 12:45:11;;;;;;;1.80;1.70;;;;;;;;;;4992622;28;20180;-84
2022/06/28 12:47:37;;;;;;;2.15;1.92;;;;;;;;;;4990620;28;20187;-82
2022/06/28 12:50:05;;;;;;;3.33;1.93;;;;;;;;;;5007195;28;20279;-83
2022/06/28 12:52:31;;;;;;;2.00;1.80;;;;;;;;;;4992671;28;20174;-84
2022/06/28 12:54:59;;;;;;;2.00;1.55;;;;;;;;;;4992477;28;20199;-83
2022/06/28 12:57:25;;;;;;;2.97;1.77;;;;;;;;;;4991613;28;20242;-84
2022/06/28 12:59:50;;;;;;;2.67;1.60;;;;;;;;;;4991956;28;20172;-83
2022/06/28 13:02:16;;;;;;;6.97;6.47;;;;;;;;;;4992985;28;20199;-84
2022/06/28 13:04:41;;;;;;;2.63;1.83;;;;;;;;;;4988579;28;20204;-84
2022/06/28 13:07:06;;;;;;;1.97;1.57;;;;;;;;;;4990035;28;20207;-83
2022/06/28 13:09:32;;;;;;;1.63;1.50;;;;;;;;;;4992269;28;20484;-83
2022/06/28 13:11:57;;;;;;;2.27;1.93;;;;;;;;;;4992377;28;20179;-84
2022/06/28 13:14:22;;;;;;;2.53;1.80;;;;;;;;;;4991536;28;20190;-83
2022/06/28 13:16:47;;;;;;;1.67;1.58;;;;;;;;;;4991682;28;20323;-83
2022/06/28 13:19:12;;;;;;;1.70;1.60;;;;;;;;;;4991556;28;20316;-84
2022/06/28 13:21:38;;;;;;;1.50;1.40;;;;;;;;;;4992956;28;20208;-83
2022/06/28 13:24:03;;;;;;;1.70;1.60;;;;;;;;;;4990736;28;20175;-85
2022/06/28 13:26:28;;;;;;;2.77;1.60;;;;;;;;;;4991688;28;20272;-84
2022/06/28 13:28:54;;;;;;;2.33;2.13;;;;;;;;;;4992501;28;20179;-85
2022/06/28 13:31:20;;;;;;;1.77;1.67;;;;;;;;;;4991720;28;20182;-84
2022/06/28 13:33:45;;;;;;;1.83;1.73;;;;;;;;;;4990584;28;20182;-83
2022/06/28 13:36:11;;;;;;;1.90;1.70;;;;;;;;;;4989775;28;20209;-83
2022/06/28 13:38:36;;;;;;;1.65;1.55;;;;;;;;;;4990749;28;20171;-83
2022/06/28 13:41:01;;;;;;;2.55;2.00;;;;;;;;;;4987049;28;20175;-82
2022/06/28 13:43:36;;;;;;;1.93;1.70;;;;;;;;;;4990276;28;20345;-84
2022/06/28 13:46:01;;;;;;;3.10;1.70;;;;;;;;;;4991656;28;20177;-83
2022/06/28 13:48:27;;;;;;;3.42;2.05;;;;;;;;;;4990233;28;20187;-84
2022/06/28 13:50:52;;;;;;;1.70;1.60;;;;;;;;;;4988044;28;20223;-84
2022/06/28 13:53:18;;;;;;;1.70;1.60;;;;;;;;;;4992324;28;20178;-83
2022/06/28 13:55:45;;;;;;;1.93;1.83;;;;;;;;;;4989217;28;20183;-84
2022/06/28 13:58:12;;;;;;;2.77;1.47;;;;;;;;;;4991301;28;20191;-83
2022/06/28 14:00:38;;;;;;;2.13;1.52;;;;;;;;;;4990690;28;20190;-83
2022/06/28 14:03:04;;;;;;;2.33;1.70;;;;;;;;;;4992079;28;20200;-84
2022/06/28 14:05:29;;;;;;;1.92;1.73;;;;;;;;;;4990729;28;20190;-85
2022/06/28 14:07:54;;;;;;;1.40;1.30;;;;;;;;;;4991000;28;20180;-85
2022/06/28 14:10:20;;;;;;;2.20;1.25;;;;;;;;;;4989873;28;20250;-84
2022/06/28 14:12:45;;;;;;;4.18;1.73;;;;;;;;;;4990174;28;20176;-84
2022/06/28 14:15:10;;;;;;;1.85;1.70;;;;;;;;;;4989529;28;20198;-83
2022/06/28 14:17:36;;;;;;;2.37;1.80;;;;;;;;;;4990379;28;20273;-84
2022/06/28 14:20:01;;;;;;;2.03;1.80;;;;;;;;;;4991108;28;20191;-83
2022/06/28 14:22:26;;;;;;;1.90;1.67;;;;;;;;;;4989540;28;20208;-87
2022/06/28 14:24:52;;;;;;;1.90;1.80;;;;;;;;;;4985473;28;20176;-88
2022/06/28 14:27:17;;;;;;;1.50;1.40;;;;;;;;;;4988704;28;20215;-87
2022/06/28 14:29:42;;;;;;;1.75;1.60;;;;;;;;;;4990742;28;20266;-87
2022/06/28 14:32:08;;;;;;;1.20;1.20;;;;;;;;;;4990291;28;20174;-89
2022/06/28 14:34:34;;;;;;;1.77;1.60;;;;;;;;;;4990782;28;20187;-87
2022/06/28 14:36:59;;;;;;;1.77;1.63;;;;;;;;;;4990701;28;20196;-86
2022/06/28 14:39:25;;;;;;;2.53;1.80;;;;;;;;;;4991049;28;20183;-88
2022/06/28 14:41:50;;;;;;;1.60;1.50;;;;;;;;;;4990041;28;20196;-87
2022/06/28 14:44:15;;;;;;;2.47;1.90;;;;;;;;;;4986340;28;20187;-84
2022/06/28 14:46:41;;;;;;;2.55;1.90;;;;;;;;;;4990208;28;20175;-87
2022/06/28 14:49:06;;;;;;;4.00;1.83;;;;;;;;;;4990294;28;20243;-86
2022/06/28 14:51:31;;;;;;;1.92;1.70;;;;;;;;;;4994930;28;20258;-87
2022/06/28 14:53:56;;;;;;;2.83;1.95;;;;;;;;;;4993829;28;20179;-86
2022/06/28 14:56:22;;;;;;;2.40;1.75;;;;;;;;;;5004334;28;20171;-87
2022/06/28 14:58:55;;;;;;;2.35;1.50;;;;;;;;;;5003355;28;20167;-86
2022/06/28 15:01:21;;;;;;;6.05;3.92;;;;;;;;;;4994386;28;20221;-86